sensor_id;sensor_type;location;lat;lon;timestamp;P1;durP1;ratioP1;P2;durP2;ratioP2
55312;SDS011;46892;45.668;11.756;2023-01-15T00:01:05;27.10;;;15.70;;
55312;SDS011;46892;45.668;11.756;2023-01-15T00:03:43;27.10;;;16.60;;
55312;SDS011;46892;45.668;11.756;2023-01-15T00:06:08;27.87;;;16.87;;
55312;SDS011;46892;45.668;11.756;2023-01-15T00:08:34;30.27;;;18.63;;
55312;SDS011;46892;45.668;11.756;2023-01-15T00:11:02;28.57;;;17.17;;
55312;SDS011;46892;45.668;11.756;2023-01-15T00:13:28;30.00;;;15.87;;
55312;SDS011;46892;45.668;11.756;2023-01-15T00:16:01;30.13;;;18.23;;
55312;SDS011;46892;45.668;11.756;2023-01-15T00:18:37;35.43;;;22.03;;
55312;SDS011;46892;45.668;11.756;2023-01-15T00:21:04;34.23;;;22.67;;
55312;SDS011;46892;45.668;11.756;2023-01-15T00:23:39;41.23;;;25.00;;
55312;SDS011;46892;45.668;11.756;2023-01-15T00:26:25;39.17;;;26.37;;
55312;SDS011;46892;45.668;11.756;2023-01-15T00:29:12;42.43;;;27.73;;
55312;SDS011;46892;45.668;11.756;2023-01-15T00:31:37;41.57;;;27.83;;
55312;SDS011;46892;45.668;11.756;2023-01-15T00:34:03;40.90;;;27.80;;
55312;SDS011;46892;45.668;11.756;2023-01-15T00:36:29;50.13;;;29.30;;
55312;SDS011;46892;45.668;11.756;2023-01-15T00:38:55;44.90;;;29.30;;
55312;SDS011;46892;45.668;11.756;2023-01-15T00:41:21;44.60;;;28.13;;
55312;SDS011;46892;45.668;11.756;2023-01-15T00:43:47;42.63;;;26.90;;
55312;SDS011;46892;45.668;11.756;2023-01-15T00:46:13;42.23;;;27.27;;
55312;SDS011;46892;45.668;11.756;2023-01-15T00:48:39;42.47;;;28.60;;
55312;SDS011;46892;45.668;11.756;2023-01-15T00:51:05;37.43;;;25.67;;
55312;SDS011;46892;45.668;11.756;2023-01-15T00:53:31;42.30;;;27.27;;
55312;SDS011;46892;45.668;11.756;2023-01-15T00:55:56;39.73;;;26.73;;
55312;SDS011;46892;45.668;11.756;2023-01-15T00:58:22;38.70;;;25.83;;
55312;SDS011;46892;45.668;11.756;2023-01-15T01:00:52;38.37;;;27.00;;
55312;SDS011;46892;45.668;11.756;2023-01-15T01:05:44;38.40;;;26.43;;
55312;SDS011;46892;45.668;11.756;2023-01-15T01:08:10;44.47;;;27.30;;
55312;SDS011;46892;45.668;11.756;2023-01-15T01:10:36;44.07;;;27.17;;
55312;SDS011;46892;45.668;11.756;2023-01-15T01:13:01;42.27;;;26.10;;
55312;SDS011;46892;45.668;11.756;2023-01-15T01:15:27;46.80;;;30.47;;
55312;SDS011;46892;45.668;11.756;2023-01-15T01:17:52;35.07;;;25.43;;
55312;SDS011;46892;45.668;11.756;2023-01-15T01:20:18;43.13;;;27.13;;
55312;SDS011;46892;45.668;11.756;2023-01-15T01:22:46;36.07;;;24.07;;
55312;SDS011;46892;45.668;11.756;2023-01-15T01:25:12;37.73;;;24.80;;
55312;SDS011;46892;45.668;11.756;2023-01-15T01:27:38;37.83;;;24.23;;
55312;SDS011;46892;45.668;11.756;2023-01-15T01:30:04;34.93;;;23.43;;
55312;SDS011;46892;45.668;11.756;2023-01-15T01:32:30;35.07;;;23.77;;
55312;SDS011;46892;45.668;11.756;2023-01-15T01:34:56;29.03;;;21.57;;
55312;SDS011;46892;45.668;11.756;2023-01-15T01:37:21;31.80;;;21.30;;
55312;SDS011;46892;45.668;11.756;2023-01-15T01:39:47;31.60;;;21.57;;
55312;SDS011;46892;45.668;11.756;2023-01-15T01:42:13;34.17;;;21.93;;
55312;SDS011;46892;45.668;11.756;2023-01-15T01:47:24;34.30;;;23.97;;
55312;SDS011;46892;45.668;11.756;2023-01-15T01:49:53;27.90;;;20.83;;
55312;SDS011;46892;45.668;11.756;2023-01-15T01:52:28;33.40;;;21.50;;
55312;SDS011;46892;45.668;11.756;2023-01-15T01:55:13;32.03;;;20.13;;
55312;SDS011;46892;45.668;11.756;2023-01-15T01:57:42;30.97;;;20.40;;
55312;SDS011;46892;45.668;11.756;2023-01-15T02:00:09;31.33;;;20.97;;
55312;SDS011;46892;45.668;11.756;2023-01-15T02:02:36;30.23;;;19.60;;
55312;SDS011;46892;45.668;11.756;2023-01-15T02:05:03;35.17;;;22.33;;
55312;SDS011;46892;45.668;11.756;2023-01-15T02:07:31;35.27;;;22.77;;
55312;SDS011;46892;45.668;11.756;2023-01-15T02:09:59;40.63;;;24.80;;
55312;SDS011;46892;45.668;11.756;2023-01-15T02:12:30;34.60;;;21.70;;
55312;SDS011;46892;45.668;11.756;2023-01-15T02:15:14;38.13;;;22.40;;
55312;SDS011;46892;45.668;11.756;2023-01-15T02:20:31;35.00;;;21.27;;
55312;SDS011;46892;45.668;11.756;2023-01-15T02:26:00;34.90;;;20.40;;
55312;SDS011;46892;45.668;11.756;2023-01-15T02:28:36;31.13;;;17.90;;
55312;SDS011;46892;45.668;11.756;2023-01-15T02:31:15;30.40;;;18.47;;
55312;SDS011;46892;45.668;11.756;2023-01-15T02:33:57;29.37;;;16.67;;
55312;SDS011;46892;45.668;11.756;2023-01-15T02:36:26;21.43;;;12.57;;
55312;SDS011;46892;45.668;11.756;2023-01-15T02:38:54;17.13;;;9.93;;
55312;SDS011;46892;45.668;11.756;2023-01-15T02:41:24;18.37;;;9.37;;
55312;SDS011;46892;45.668;11.756;2023-01-15T02:46:21;13.60;;;7.03;;
55312;SDS011;46892;45.668;11.756;2023-01-15T02:48:52;11.45;;;6.55;;
55312;SDS011;46892;45.668;11.756;2023-01-15T02:51:21;9.43;;;5.67;;
55312;SDS011;46892;45.668;11.756;2023-01-15T02:53:53;8.47;;;5.03;;
55312;SDS011;46892;45.668;11.756;2023-01-15T02:56:23;8.37;;;4.40;;
55312;SDS011;46892;45.668;11.756;2023-01-15T02:58:55;9.27;;;4.40;;
55312;SDS011;46892;45.668;11.756;2023-01-15T03:01:28;14.07;;;4.97;;
55312;SDS011;46892;45.668;11.756;2023-01-15T03:04:02;9.27;;;4.57;;
55312;SDS011;46892;45.668;11.756;2023-01-15T03:06:59;7.07;;;4.60;;
55312;SDS011;46892;45.668;11.756;2023-01-15T03:09:46;10.13;;;3.95;;
55312;SDS011;46892;45.668;11.756;2023-01-15T03:12:27;9.43;;;4.17;;
55312;SDS011;46892;45.668;11.756;2023-01-15T03:15:21;7.27;;;3.60;;
55312;SDS011;46892;45.668;11.756;2023-01-15T03:18:07;5.70;;;3.60;;
55312;SDS011;46892;45.668;11.756;2023-01-15T03:20:36;6.70;;;3.83;;
55312;SDS011;46892;45.668;11.756;2023-01-15T03:25:36;7.40;;;3.53;;
55312;SDS011;46892;45.668;11.756;2023-01-15T03:28:06;6.23;;;3.40;;
55312;SDS011;46892;45.668;11.756;2023-01-15T03:30:33;4.97;;;3.00;;
55312;SDS011;46892;45.668;11.756;2023-01-15T03:32:59;5.97;;;3.30;;
55312;SDS011;46892;45.668;11.756;2023-01-15T03:35:45;5.53;;;3.33;;
55312;SDS011;46892;45.668;11.756;2023-01-15T03:38:19;5.13;;;3.00;;
55312;SDS011;46892;45.668;11.756;2023-01-15T03:40:57;6.60;;;3.63;;
55312;SDS011;46892;45.668;11.756;2023-01-15T03:43:37;6.73;;;3.60;;
55312;SDS011;46892;45.668;11.756;2023-01-15T03:46:17;5.80;;;3.70;;
55312;SDS011;46892;45.668;11.756;2023-01-15T03:49:04;6.30;;;3.60;;
55312;SDS011;46892;45.668;11.756;2023-01-15T04:00:09;7.23;;;4.27;;
55312;SDS011;46892;45.668;11.756;2023-01-15T04:02:37;10.37;;;5.30;;
55312;SDS011;46892;45.668;11.756;2023-01-15T04:05:04;10.07;;;5.70;;
55312;SDS011;46892;45.668;11.756;2023-01-15T04:07:31;10.70;;;6.00;;
55312;SDS011;46892;45.668;11.756;2023-01-15T04:09:57;9.40;;;6.30;;
55312;SDS011;46892;45.668;11.756;2023-01-15T04:12:22;10.47;;;6.13;;
55312;SDS011;46892;45.668;11.756;2023-01-15T04:17:35;9.20;;;5.83;;
55312;SDS011;46892;45.668;11.756;2023-01-15T04:20:01;10.90;;;6.60;;
55312;SDS011;46892;45.668;11.756;2023-01-15T04:22:26;10.30;;;6.53;;
55312;SDS011;46892;45.668;11.756;2023-01-15T04:24:52;11.60;;;7.47;;
55312;SDS011;46892;45.668;11.756;2023-01-15T04:27:19;12.37;;;7.60;;
55312;SDS011;46892;45.668;11.756;2023-01-15T04:29:45;14.30;;;7.70;;
55312;SDS011;46892;45.668;11.756;2023-01-15T04:32:10;12.50;;;7.90;;
55312;SDS011;46892;45.668;11.756;2023-01-15T04:34:56;13.60;;;8.17;;
55312;SDS011;46892;45.668;11.756;2023-01-15T04:37:22;14.40;;;8.30;;
55312;SDS011;46892;45.668;11.756;2023-01-15T04:39:47;14.63;;;9.93;;
55312;SDS011;46892;45.668;11.756;2023-01-15T04:42:13;16.40;;;10.63;;
55312;SDS011;46892;45.668;11.756;2023-01-15T04:44:57;19.27;;;13.00;;
55312;SDS011;46892;45.668;11.756;2023-01-15T04:47:23;19.63;;;12.90;;
55312;SDS011;46892;45.668;11.756;2023-01-15T04:49:49;21.47;;;14.13;;
55312;SDS011;46892;45.668;11.756;2023-01-15T04:52:15;28.00;;;15.07;;
55312;SDS011;46892;45.668;11.756;2023-01-15T04:54:40;24.07;;;14.83;;
55312;SDS011;46892;45.668;11.756;2023-01-15T04:57:06;20.37;;;13.57;;
55312;SDS011;46892;45.668;11.756;2023-01-15T04:59:32;21.43;;;14.13;;
55312;SDS011;46892;45.668;11.756;2023-01-15T05:01:58;22.53;;;14.57;;
55312;SDS011;46892;45.668;11.756;2023-01-15T05:04:23;20.03;;;13.80;;
55312;SDS011;46892;45.668;11.756;2023-01-15T05:06:49;22.03;;;13.40;;
55312;SDS011;46892;45.668;11.756;2023-01-15T05:09:15;19.93;;;14.63;;
55312;SDS011;46892;45.668;11.756;2023-01-15T05:11:41;20.80;;;13.23;;
55312;SDS011;46892;45.668;11.756;2023-01-15T05:14:06;24.43;;;15.40;;
55312;SDS011;46892;45.668;11.756;2023-01-15T05:16:33;25.10;;;13.53;;
55312;SDS011;46892;45.668;11.756;2023-01-15T05:19:00;22.60;;;14.63;;
55312;SDS011;46892;45.668;11.756;2023-01-15T05:21:28;20.83;;;14.53;;
55312;SDS011;46892;45.668;11.756;2023-01-15T05:23:58;18.90;;;13.63;;
55312;SDS011;46892;45.668;11.756;2023-01-15T05:26:26;26.97;;;16.07;;
55312;SDS011;46892;45.668;11.756;2023-01-15T05:28:53;19.50;;;13.07;;
55312;SDS011;46892;45.668;11.756;2023-01-15T05:31:20;19.67;;;14.10;;
55312;SDS011;46892;45.668;11.756;2023-01-15T05:33:47;20.10;;;14.03;;
55312;SDS011;46892;45.668;11.756;2023-01-15T05:36:15;21.43;;;14.53;;
55312;SDS011;46892;45.668;11.756;2023-01-15T05:38:42;20.53;;;13.17;;
55312;SDS011;46892;45.668;11.756;2023-01-15T05:41:12;22.93;;;15.30;;
55312;SDS011;46892;45.668;11.756;2023-01-15T05:43:59;16.25;;;11.60;;
55312;SDS011;46892;45.668;11.756;2023-01-15T05:46:26;19.97;;;14.10;;
55312;SDS011;46892;45.668;11.756;2023-01-15T05:48:52;20.70;;;13.97;;
55312;SDS011;46892;45.668;11.756;2023-01-15T05:51:18;23.70;;;14.50;;
55312;SDS011;46892;45.668;11.756;2023-01-15T05:53:43;19.93;;;14.90;;
55312;SDS011;46892;45.668;11.756;2023-01-15T05:56:09;17.83;;;13.90;;
55312;SDS011;46892;45.668;11.756;2023-01-15T05:58:35;20.87;;;13.40;;
55312;SDS011;46892;45.668;11.756;2023-01-15T06:01:05;18.27;;;12.83;;
55312;SDS011;46892;45.668;11.756;2023-01-15T06:03:34;22.37;;;14.00;;
55312;SDS011;46892;45.668;11.756;2023-01-15T06:06:00;20.93;;;14.10;;
55312;SDS011;46892;45.668;11.756;2023-01-15T06:08:26;18.97;;;13.17;;
55312;SDS011;46892;45.668;11.756;2023-01-15T06:10:51;19.73;;;13.80;;
55312;SDS011;46892;45.668;11.756;2023-01-15T06:13:17;18.17;;;12.73;;
55312;SDS011;46892;45.668;11.756;2023-01-15T06:15:43;20.30;;;13.33;;
55312;SDS011;46892;45.668;11.756;2023-01-15T06:18:09;19.77;;;14.30;;
55312;SDS011;46892;45.668;11.756;2023-01-15T06:20:36;20.90;;;14.70;;
55312;SDS011;46892;45.668;11.756;2023-01-15T06:23:02;19.97;;;14.93;;
55312;SDS011;46892;45.668;11.756;2023-01-15T06:25:28;21.87;;;14.23;;
55312;SDS011;46892;45.668;11.756;2023-01-15T06:27:59;21.38;;;15.40;;
55312;SDS011;46892;45.668;11.756;2023-01-15T06:30:24;22.53;;;15.10;;
55312;SDS011;46892;45.668;11.756;2023-01-15T06:32:50;22.90;;;15.00;;
55312;SDS011;46892;45.668;11.756;2023-01-15T06:35:16;21.17;;;15.30;;
55312;SDS011;46892;45.668;11.756;2023-01-15T06:37:41;20.40;;;15.53;;
55312;SDS011;46892;45.668;11.756;2023-01-15T06:40:07;23.33;;;16.53;;
55312;SDS011;46892;45.668;11.756;2023-01-15T06:42:34;22.47;;;15.13;;
55312;SDS011;46892;45.668;11.756;2023-01-15T06:45:18;23.30;;;16.07;;
55312;SDS011;46892;45.668;11.756;2023-01-15T06:48:02;20.23;;;15.17;;
55312;SDS011;46892;45.668;11.756;2023-01-15T06:50:28;21.87;;;14.70;;
55312;SDS011;46892;45.668;11.756;2023-01-15T06:52:53;19.93;;;14.10;;
55312;SDS011;46892;45.668;11.756;2023-01-15T06:55:19;21.73;;;15.97;;
55312;SDS011;46892;45.668;11.756;2023-01-15T06:57:44;22.27;;;17.00;;
55312;SDS011;46892;45.668;11.756;2023-01-15T07:00:11;24.63;;;17.33;;
55312;SDS011;46892;45.668;11.756;2023-01-15T07:02:37;23.50;;;17.40;;
55312;SDS011;46892;45.668;11.756;2023-01-15T07:05:05;21.97;;;16.53;;
55312;SDS011;46892;45.668;11.756;2023-01-15T07:07:31;30.00;;;17.20;;
55312;SDS011;46892;45.668;11.756;2023-01-15T07:09:56;22.07;;;15.63;;
55312;SDS011;46892;45.668;11.756;2023-01-15T07:12:22;18.90;;;14.43;;
55312;SDS011;46892;45.668;11.756;2023-01-15T07:14:48;22.47;;;15.83;;
55312;SDS011;46892;45.668;11.756;2023-01-15T07:17:14;22.20;;;16.50;;
55312;SDS011;46892;45.668;11.756;2023-01-15T07:19:39;30.07;;;25.07;;
55312;SDS011;46892;45.668;11.756;2023-01-15T07:22:05;26.47;;;20.13;;
55312;SDS011;46892;45.668;11.756;2023-01-15T07:24:34;24.47;;;18.00;;
55312;SDS011;46892;45.668;11.756;2023-01-15T07:27:00;24.27;;;17.47;;
55312;SDS011;46892;45.668;11.756;2023-01-15T07:29:25;23.70;;;17.63;;
55312;SDS011;46892;45.668;11.756;2023-01-15T07:31:51;25.93;;;18.23;;
55312;SDS011;46892;45.668;11.756;2023-01-15T07:34:17;23.80;;;17.87;;
55312;SDS011;46892;45.668;11.756;2023-01-15T07:36:43;24.40;;;18.77;;
55312;SDS011;46892;45.668;11.756;2023-01-15T07:39:09;24.03;;;18.17;;
55312;SDS011;46892;45.668;11.756;2023-01-15T07:53:39;23.47;;;18.63;;
55312;SDS011;46892;45.668;11.756;2023-01-15T07:56:05;28.63;;;20.67;;
55312;SDS011;46892;45.668;11.756;2023-01-15T07:58:31;25.10;;;18.63;;
55312;SDS011;46892;45.668;11.756;2023-01-15T08:00:57;26.37;;;20.07;;
55312;SDS011;46892;45.668;11.756;2023-01-15T08:03:23;24.90;;;19.87;;
55312;SDS011;46892;45.668;11.756;2023-01-15T08:05:48;24.20;;;19.40;;
55312;SDS011;46892;45.668;11.756;2023-01-15T08:08:14;27.33;;;21.30;;
55312;SDS011;46892;45.668;11.756;2023-01-15T08:10:41;30.93;;;21.97;;
55312;SDS011;46892;45.668;11.756;2023-01-15T08:13:25;28.97;;;22.50;;
55312;SDS011;46892;45.668;11.756;2023-01-15T08:16:09;27.63;;;20.50;;
55312;SDS011;46892;45.668;11.756;2023-01-15T08:18:36;28.03;;;19.97;;
55312;SDS011;46892;45.668;11.756;2023-01-15T08:21:02;26.87;;;19.87;;
55312;SDS011;46892;45.668;11.756;2023-01-15T08:23:27;43.23;;;30.20;;
55312;SDS011;46892;45.668;11.756;2023-01-15T08:25:53;53.43;;;34.30;;
55312;SDS011;46892;45.668;11.756;2023-01-15T08:28:19;41.70;;;31.40;;
55312;SDS011;46892;45.668;11.756;2023-01-15T08:30:45;34.83;;;24.13;;
55312;SDS011;46892;45.668;11.756;2023-01-15T08:33:11;29.17;;;21.13;;
55312;SDS011;46892;45.668;11.756;2023-01-15T08:35:36;29.97;;;20.13;;
55312;SDS011;46892;45.668;11.756;2023-01-15T08:38:03;27.27;;;21.00;;
55312;SDS011;46892;45.668;11.756;2023-01-15T08:40:32;25.93;;;21.07;;
55312;SDS011;46892;45.668;11.756;2023-01-15T08:43:00;31.00;;;22.00;;
55312;SDS011;46892;45.668;11.756;2023-01-15T08:45:26;34.90;;;25.23;;
55312;SDS011;46892;45.668;11.756;2023-01-15T08:47:55;36.57;;;24.97;;
55312;SDS011;46892;45.668;11.756;2023-01-15T08:50:24;32.53;;;23.90;;
55312;SDS011;46892;45.668;11.756;2023-01-15T08:52:50;36.37;;;25.17;;
55312;SDS011;46892;45.668;11.756;2023-01-15T08:55:15;32.60;;;24.40;;
55312;SDS011;46892;45.668;11.756;2023-01-15T08:57:41;37.63;;;25.47;;
55312;SDS011;46892;45.668;11.756;2023-01-15T09:00:08;32.93;;;25.37;;
55312;SDS011;46892;45.668;11.756;2023-01-15T09:02:34;31.43;;;24.27;;
55312;SDS011;46892;45.668;11.756;2023-01-15T09:05:00;37.00;;;28.57;;
55312;SDS011;46892;45.668;11.756;2023-01-15T09:07:26;34.40;;;25.80;;
55312;SDS011;46892;45.668;11.756;2023-01-15T09:09:51;31.97;;;23.33;;
55312;SDS011;46892;45.668;11.756;2023-01-15T09:12:18;32.33;;;23.57;;
55312;SDS011;46892;45.668;11.756;2023-01-15T09:14:44;32.17;;;23.73;;
55312;SDS011;46892;45.668;11.756;2023-01-15T09:17:09;34.33;;;24.73;;
55312;SDS011;46892;45.668;11.756;2023-01-15T09:19:35;31.43;;;23.60;;
55312;SDS011;46892;45.668;11.756;2023-01-15T09:22:00;27.97;;;22.23;;
55312;SDS011;46892;45.668;11.756;2023-01-15T09:24:26;32.63;;;23.47;;
55312;SDS011;46892;45.668;11.756;2023-01-15T09:26:52;32.67;;;22.73;;
55312;SDS011;46892;45.668;11.756;2023-01-15T09:29:17;27.00;;;21.37;;
55312;SDS011;46892;45.668;11.756;2023-01-15T09:31:43;30.53;;;23.10;;
55312;SDS011;46892;45.668;11.756;2023-01-15T09:34:09;32.80;;;24.37;;
55312;SDS011;46892;45.668;11.756;2023-01-15T09:36:35;32.43;;;25.03;;
55312;SDS011;46892;45.668;11.756;2023-01-15T09:39:01;42.87;;;28.47;;
55312;SDS011;46892;45.668;11.756;2023-01-15T09:42:12;41.27;;;27.17;;
55312;SDS011;46892;45.668;11.756;2023-01-15T09:44:32;39.55;;;26.63;;
55312;SDS011;46892;45.668;11.756;2023-01-15T09:47:23;35.83;;;26.47;;
55312;SDS011;46892;45.668;11.756;2023-01-15T09:50:05;35.97;;;27.20;;
55312;SDS011;46892;45.668;11.756;2023-01-15T09:55:16;36.47;;;25.50;;
55312;SDS011;46892;45.668;11.756;2023-01-15T09:57:54;59.27;;;47.63;;
55312;SDS011;46892;45.668;11.756;2023-01-15T10:00:26;43.10;;;33.73;;
55312;SDS011;46892;45.668;11.756;2023-01-15T10:05:30;37.07;;;27.57;;
55312;SDS011;46892;45.668;11.756;2023-01-15T10:08:16;34.10;;;24.37;;
55312;SDS011;46892;45.668;11.756;2023-01-15T10:11:33;31.67;;;22.53;;
55312;SDS011;46892;45.668;11.756;2023-01-15T10:13:57;35.63;;;24.93;;
55312;SDS011;46892;45.668;11.756;2023-01-15T10:16:28;38.23;;;28.83;;
55312;SDS011;46892;45.668;11.756;2023-01-15T10:24:29;34.17;;;24.87;;
55312;SDS011;46892;45.668;11.756;2023-01-15T10:27:04;35.67;;;24.77;;
55312;SDS011;46892;45.668;11.756;2023-01-15T10:30:38;34.67;;;24.97;;
55312;SDS011;46892;45.668;11.756;2023-01-15T10:32:54;31.53;;;23.47;;
55312;SDS011;46892;45.668;11.756;2023-01-15T10:43:52;27.80;;;21.27;;
55312;SDS011;46892;45.668;11.756;2023-01-15T10:46:24;26.90;;;18.77;;
55312;SDS011;46892;45.668;11.756;2023-01-15T10:48:58;28.67;;;21.92;;
55312;SDS011;46892;45.668;11.756;2023-01-15T10:51:41;25.80;;;17.40;;
55312;SDS011;46892;45.668;11.756;2023-01-15T10:56:59;28.77;;;18.97;;
55312;SDS011;46892;45.668;11.756;2023-01-15T10:59:47;31.53;;;22.27;;
55312;SDS011;46892;45.668;11.756;2023-01-15T11:04:50;28.43;;;20.80;;
55312;SDS011;46892;45.668;11.756;2023-01-15T11:07:17;29.30;;;21.83;;
55312;SDS011;46892;45.668;11.756;2023-01-15T11:09:43;28.37;;;20.63;;
55312;SDS011;46892;45.668;11.756;2023-01-15T11:12:21;28.43;;;20.13;;
55312;SDS011;46892;45.668;11.756;2023-01-15T11:14:50;28.15;;;19.27;;
55312;SDS011;46892;45.668;11.756;2023-01-15T11:17:41;29.70;;;20.70;;
55312;SDS011;46892;45.668;11.756;2023-01-15T11:20:35;28.40;;;19.77;;
55312;SDS011;46892;45.668;11.756;2023-01-15T11:23:11;29.35;;;20.17;;
55312;SDS011;46892;45.668;11.756;2023-01-15T11:25:47;27.40;;;20.27;;
55312;SDS011;46892;45.668;11.756;2023-01-15T11:28:28;26.57;;;20.73;;
55312;SDS011;46892;45.668;11.756;2023-01-15T11:31:04;27.33;;;19.97;;
55312;SDS011;46892;45.668;11.756;2023-01-15T11:33:32;28.80;;;20.97;;
55312;SDS011;46892;45.668;11.756;2023-01-15T11:36:03;25.83;;;19.53;;
55312;SDS011;46892;45.668;11.756;2023-01-15T11:38:46;26.10;;;18.57;;
55312;SDS011;46892;45.668;11.756;2023-01-15T11:44:16;24.42;;;18.02;;
55312;SDS011;46892;45.668;11.756;2023-01-15T11:47:02;23.60;;;18.37;;
55312;SDS011;46892;45.668;11.756;2023-01-15T11:49:50;24.53;;;18.20;;
55312;SDS011;46892;45.668;11.756;2023-01-15T11:52:36;24.37;;;19.07;;
55312;SDS011;46892;45.668;11.756;2023-01-15T11:55:09;27.77;;;19.58;;
55312;SDS011;46892;45.668;11.756;2023-01-15T11:57:37;29.80;;;19.80;;
55312;SDS011;46892;45.668;11.756;2023-01-15T12:00:04;27.20;;;20.23;;
55312;SDS011;46892;45.668;11.756;2023-01-15T12:02:38;26.90;;;19.20;;
55312;SDS011;46892;45.668;11.756;2023-01-15T12:05:17;26.20;;;18.33;;
55312;SDS011;46892;45.668;11.756;2023-01-15T12:07:49;26.37;;;18.17;;
55312;SDS011;46892;45.668;11.756;2023-01-15T12:10:19;23.70;;;17.87;;
55312;SDS011;46892;45.668;11.756;2023-01-15T12:15:56;20.87;;;15.57;;
55312;SDS011;46892;45.668;11.756;2023-01-15T12:32:45;22.57;;;17.37;;
55312;SDS011;46892;45.668;11.756;2023-01-15T12:38:00;21.93;;;16.33;;
55312;SDS011;46892;45.668;11.756;2023-01-15T12:40:29;24.53;;;17.20;;
55312;SDS011;46892;45.668;11.756;2023-01-15T12:42:56;24.30;;;18.23;;
55312;SDS011;46892;45.668;11.756;2023-01-15T12:45:46;22.73;;;17.97;;
55312;SDS011;46892;45.668;11.756;2023-01-15T12:48:18;26.20;;;19.27;;
55312;SDS011;46892;45.668;11.756;2023-01-15T12:51:07;25.07;;;18.83;;
55312;SDS011;46892;45.668;11.756;2023-01-15T12:53:51;25.87;;;19.20;;
55312;SDS011;46892;45.668;11.756;2023-01-15T12:58:53;26.50;;;19.83;;
55312;SDS011;46892;45.668;11.756;2023-01-15T13:04:33;28.10;;;20.23;;
55312;SDS011;46892;45.668;11.756;2023-01-15T13:07:17;25.97;;;19.77;;
55312;SDS011;46892;45.668;11.756;2023-01-15T13:10:00;28.30;;;19.57;;
55312;SDS011;46892;45.668;11.756;2023-01-15T13:12:34;25.63;;;18.93;;
55312;SDS011;46892;45.668;11.756;2023-01-15T13:15:00;28.90;;;21.00;;
55312;SDS011;46892;45.668;11.756;2023-01-15T13:26:04;29.63;;;22.80;;
55312;SDS011;46892;45.668;11.756;2023-01-15T13:37:27;34.50;;;25.83;;
55312;SDS011;46892;45.668;11.756;2023-01-15T13:39:55;37.13;;;28.67;;
55312;SDS011;46892;45.668;11.756;2023-01-15T13:42:25;35.23;;;27.80;;
55312;SDS011;46892;45.668;11.756;2023-01-15T13:48:13;36.93;;;28.43;;
55312;SDS011;46892;45.668;11.756;2023-01-15T13:50:54;37.97;;;28.50;;
55312;SDS011;46892;45.668;11.756;2023-01-15T13:53:26;37.20;;;28.87;;
55312;SDS011;46892;45.668;11.756;2023-01-15T13:55:56;36.17;;;28.77;;
55312;SDS011;46892;45.668;11.756;2023-01-15T13:58:30;39.40;;;30.23;;
55312;SDS011;46892;45.668;11.756;2023-01-15T14:06:49;38.27;;;30.00;;
55312;SDS011;46892;45.668;11.756;2023-01-15T14:17:54;35.97;;;28.73;;
55312;SDS011;46892;45.668;11.756;2023-01-15T14:23:22;34.20;;;26.83;;
55312;SDS011;46892;45.668;11.756;2023-01-15T14:28:26;35.13;;;28.80;;
55312;SDS011;46892;45.668;11.756;2023-01-15T14:36:28;36.50;;;28.97;;
55312;SDS011;46892;45.668;11.756;2023-01-15T14:38:58;37.10;;;28.50;;
55312;SDS011;46892;45.668;11.756;2023-01-15T14:41:34;35.23;;;28.70;;
55312;SDS011;46892;45.668;11.756;2023-01-15T14:44:25;37.17;;;28.70;;
55312;SDS011;46892;45.668;11.756;2023-01-15T14:46:57;40.57;;;29.77;;
55312;SDS011;46892;45.668;11.756;2023-01-15T14:49:27;36.88;;;29.70;;
55312;SDS011;46892;45.668;11.756;2023-01-15T14:51:54;36.90;;;28.57;;
55312;SDS011;46892;45.668;11.756;2023-01-15T14:54:21;39.17;;;30.00;;
55312;SDS011;46892;45.668;11.756;2023-01-15T14:56:50;37.80;;;29.97;;
55312;SDS011;46892;45.668;11.756;2023-01-15T14:59:24;36.33;;;29.08;;
55312;SDS011;46892;45.668;11.756;2023-01-15T15:04:39;38.60;;;30.37;;
55312;SDS011;46892;45.668;11.756;2023-01-15T15:09:41;38.42;;;31.15;;
55312;SDS011;46892;45.668;11.756;2023-01-15T15:15:11;38.27;;;30.63;;
55312;SDS011;46892;45.668;11.756;2023-01-15T15:18:23;36.03;;;28.10;;
55312;SDS011;46892;45.668;11.756;2023-01-15T15:23:27;36.75;;;29.45;;
55312;SDS011;46892;45.668;11.756;2023-01-15T15:26:25;36.63;;;29.63;;
55312;SDS011;46892;45.668;11.756;2023-01-15T15:29:01;40.77;;;32.13;;
55312;SDS011;46892;45.668;11.756;2023-01-15T15:31:30;40.63;;;32.73;;
55312;SDS011;46892;45.668;11.756;2023-01-15T15:33:58;40.60;;;32.13;;
55312;SDS011;46892;45.668;11.756;2023-01-15T15:36:25;45.63;;;33.73;;
55312;SDS011;46892;45.668;11.756;2023-01-15T15:38:58;45.63;;;35.10;;
55312;SDS011;46892;45.668;11.756;2023-01-15T15:41:28;46.07;;;35.33;;
55312;SDS011;46892;45.668;11.756;2023-01-15T15:44:16;50.40;;;36.47;;
55312;SDS011;46892;45.668;11.756;2023-01-15T15:47:19;46.93;;;36.13;;
55312;SDS011;46892;45.668;11.756;2023-01-15T15:50:05;57.27;;;40.23;;
55312;SDS011;46892;45.668;11.756;2023-01-15T15:52:32;55.23;;;41.13;;
55312;SDS011;46892;45.668;11.756;2023-01-15T15:54:59;57.47;;;43.53;;
55312;SDS011;46892;45.668;11.756;2023-01-15T15:57:30;58.78;;;42.90;;
55312;SDS011;46892;45.668;11.756;2023-01-15T15:59:57;52.83;;;40.73;;
55312;SDS011;46892;45.668;11.756;2023-01-15T16:02:33;54.63;;;41.33;;
55312;SDS011;46892;45.668;11.756;2023-01-15T16:07:47;48.80;;;37.23;;
55312;SDS011;46892;45.668;11.756;2023-01-15T16:10:29;46.73;;;37.70;;
55312;SDS011;46892;45.668;11.756;2023-01-15T16:12:57;57.30;;;41.20;;
55312;SDS011;46892;45.668;11.756;2023-01-15T16:17:55;51.43;;;38.33;;
55312;SDS011;46892;45.668;11.756;2023-01-15T16:20:22;60.13;;;45.33;;
55312;SDS011;46892;45.668;11.756;2023-01-15T16:22:56;54.27;;;41.37;;
55312;SDS011;46892;45.668;11.756;2023-01-15T16:25:24;49.07;;;39.00;;
55312;SDS011;46892;45.668;11.756;2023-01-15T16:28:23;47.75;;;38.70;;
55312;SDS011;46892;45.668;11.756;2023-01-15T16:30:54;48.17;;;37.00;;
55312;SDS011;46892;45.668;11.756;2023-01-15T16:33:21;45.85;;;35.90;;
55312;SDS011;46892;45.668;11.756;2023-01-15T16:35:47;45.10;;;36.57;;
55312;SDS011;46892;45.668;11.756;2023-01-15T16:38:21;45.20;;;36.90;;
55312;SDS011;46892;45.668;11.756;2023-01-15T16:40:47;47.60;;;36.73;;
55312;SDS011;46892;45.668;11.756;2023-01-15T16:43:16;45.77;;;36.83;;
55312;SDS011;46892;45.668;11.756;2023-01-15T16:48:25;49.60;;;36.43;;
55312;SDS011;46892;45.668;11.756;2023-01-15T16:50:53;47.23;;;36.17;;
55312;SDS011;46892;45.668;11.756;2023-01-15T16:56:01;51.03;;;41.50;;
55312;SDS011;46892;45.668;11.756;2023-01-15T16:58:39;47.53;;;38.30;;
55312;SDS011;46892;45.668;11.756;2023-01-15T17:01:42;48.83;;;38.83;;
55312;SDS011;46892;45.668;11.756;2023-01-15T17:04:03;49.00;;;38.20;;
55312;SDS011;46892;45.668;11.756;2023-01-15T17:06:40;49.27;;;39.53;;
55312;SDS011;46892;45.668;11.756;2023-01-15T17:09:10;45.13;;;37.70;;
55312;SDS011;46892;45.668;11.756;2023-01-15T17:11:39;48.47;;;38.60;;
55312;SDS011;46892;45.668;11.756;2023-01-15T17:14:07;51.03;;;39.53;;